Terminal Aerodrome Forecast
Issued by NWS Wilmington, OH

Current Version | Previous Version | Graphics & Text | Print | Product List | Glossary On
Versions: 1 2 3 4 5 6 7 8 9 10 11 12 13 14 15 16 17 18 19 20 21 22 23 24 25 26 27 28 29 30 31 32 33 34 35
000
FTUS41 KILN 281511 AAB
TAFCVG
TAF AMD
KCVG 281511Z 2815/2918 29006KT P6SM FEW007 OVC015
     FM281800 22004KT P6SM BKN040 BKN150
     FM281900 22004KT P6SM VCTS BKN040CB BKN150
     FM290100 VRB03KT P6SM SCT040 BKN150
     FM290800 VRB03KT 5SM BR BKN150
     FM291200 22004KT P6SM BKN150=

USA.gov is the U.S. government's official web portal to all federal, state and local government web resources and services.